Dati Storici

Data ora Umidita' aria (%) Temperatura aria (°C) Rad globale (W/m²) Gonioanemometro (°) Tacoanemometro (m/s) Pioggia (mm)
15-10-2012 23:20 94.4 % 14.876 2.7 327.308 2.131 0
15-10-2012 23:10 95.1 % 14.991 3.11 320.344 3.322 0
15-10-2012 23:00 94.9 % 15.028 2.995 278.235 2.788 0
15-10-2012 22:50 94.7 % 15.09 3.135 297.039 1.656 0
15-10-2012 22:40 94.4 % 15.083 2.765 303.889 0.607 0
15-10-2012 22:30 94.1 % 15.032 2.547 31.874 0.221 0
15-10-2012 22:20 94.1 % 15.057 2.56 281.866 0.073 0
15-10-2012 22:10 94 % 15.033 2.56 56.695 0.203 0
15-10-2012 22:00 93.9 % 15.07 2.585 94.091 0.842 0
15-10-2012 21:50 93.8 % 15.126 2.778 77.945 0.991 0
15-10-2012 21:40 93.4 % 15.166 2.944 94.323 0.79 0
15-10-2012 21:30 93.2 % 15.219 2.823 66.944 0.762 1
15-10-2012 21:20 93.1 % 15.308 2.887 58.776 0.451 0
15-10-2012 21:10 93 % 15.347 2.938 70.949 0.841 0
15-10-2012 21:00 92.8 % 15.362 3.182 57.037 1.1 0
15-10-2012 20:50 92.6 % 15.397 3.157 62.374 0.642 0
15-10-2012 20:40 92.5 % 15.413 3.208 46.948 0.58 0
15-10-2012 20:30 92.5 % 15.416 2.715 27.381 0.643 0
15-10-2012 20:20 92.4 % 15.474 2.753 21.011 1.134 0
15-10-2012 20:10 92 % 15.487 2.702 1.073 0.349 0

I dati sono presentati in modo automatico a scopo informativo. In seguito a verifica i dati possono subire modifiche o essere invalidati e non riportati negli archivi definitivi.